sensor_id;sensor_type;location;lat;lon;timestamp;temperature;humidity
18207;DHT22;9229;52.354;20.886;2023-08-01T00:11:01;19.70;99.90
18207;DHT22;9229;52.354;20.886;2023-08-01T00:26:11;19.60;99.90
18207;DHT22;9229;52.354;20.886;2023-08-01T00:41:20;19.60;99.90
18207;DHT22;9229;52.354;20.886;2023-08-01T00:46:23;19.50;99.90
18207;DHT22;9229;52.354;20.886;2023-08-01T00:51:26;19.50;99.90
18207;DHT22;9229;52.354;20.886;2023-08-01T00:56:31;19.60;99.90
18207;DHT22;9229;52.354;20.886;2023-08-01T01:06:40;18.90;99.90
18207;DHT22;9229;52.354;20.886;2023-08-01T01:11:44;20.00;99.90
18207;DHT22;9229;52.354;20.886;2023-08-01T01:21:50;19.90;99.90
18207;DHT22;9229;52.354;20.886;2023-08-01T01:26:53;19.30;99.90
18207;DHT22;9229;52.354;20.886;2023-08-01T01:31:57;20.80;99.90
18207;DHT22;9229;52.354;20.886;2023-08-01T01:37:02;19.60;99.90
18207;DHT22;9229;52.354;20.886;2023-08-01T01:42:06;19.90;99.90
18207;DHT22;9229;52.354;20.886;2023-08-01T01:52:12;19.60;99.90
18207;DHT22;9229;52.354;20.886;2023-08-01T02:07:20;19.50;99.90
18207;DHT22;9229;52.354;20.886;2023-08-01T02:22:28;19.30;99.90
18207;DHT22;9229;52.354;20.886;2023-08-01T02:37:35;19.20;99.90
18207;DHT22;9229;52.354;20.886;2023-08-01T02:52:43;18.80;99.90
18207;DHT22;9229;52.354;20.886;2023-08-01T03:07:51;19.20;99.90
18207;DHT22;9229;52.354;20.886;2023-08-01T03:22:59;19.40;99.90
18207;DHT22;9229;52.354;20.886;2023-08-01T03:38:08;19.60;99.90
18207;DHT22;9229;52.354;20.886;2023-08-01T03:53:17;19.80;99.90
18207;DHT22;9229;52.354;20.886;2023-08-01T04:08:25;19.80;99.90
18207;DHT22;9229;52.354;20.886;2023-08-01T04:23:32;20.00;99.90
18207;DHT22;9229;52.354;20.886;2023-08-01T04:38:40;20.70;99.90
18207;DHT22;9229;52.354;20.886;2023-08-01T04:53:48;20.50;99.90
18207;DHT22;9229;52.354;20.886;2023-08-01T05:03:52;21.30;99.90
18207;DHT22;9229;52.354;20.886;2023-08-01T05:08:55;21.60;99.90
18207;DHT22;9229;52.354;20.886;2023-08-01T05:24:03;22.30;97.60
18207;DHT22;9229;52.354;20.886;2023-08-01T05:39:11;22.00;97.20
18207;DHT22;9229;52.354;20.886;2023-08-01T05:54:19;22.30;96.50
18207;DHT22;9229;52.354;20.886;2023-08-01T05:59:21;22.40;96.40
18207;DHT22;9229;52.354;20.886;2023-08-01T06:09:27;22.20;96.70
18207;DHT22;9229;52.354;20.886;2023-08-01T06:24:35;22.40;99.90
18207;DHT22;9229;52.354;20.886;2023-08-01T06:39:43;23.40;94.40
18207;DHT22;9229;52.354;20.886;2023-08-01T06:44:45;23.60;94.80
18207;DHT22;9229;52.354;20.886;2023-08-01T06:54:51;23.80;93.80
18207;DHT22;9229;52.354;20.886;2023-08-01T07:10:00;24.50;92.30
18207;DHT22;9229;52.354;20.886;2023-08-01T07:20:06;24.50;92.40
18207;DHT22;9229;52.354;20.886;2023-08-01T07:25:10;24.70;92.00
18207;DHT22;9229;52.354;20.886;2023-08-01T07:40:18;25.90;90.70
18207;DHT22;9229;52.354;20.886;2023-08-01T07:55:26;25.70;89.00
18207;DHT22;9229;52.354;20.886;2023-08-01T08:10:36;25.10;90.20
18207;DHT22;9229;52.354;20.886;2023-08-01T08:20:42;24.50;91.20
18207;DHT22;9229;52.354;20.886;2023-08-01T08:25:46;24.30;92.20
18207;DHT22;9229;52.354;20.886;2023-08-01T08:30:48;24.70;99.90
18207;DHT22;9229;52.354;20.886;2023-08-01T08:40:59;24.60;91.30
18207;DHT22;9229;52.354;20.886;2023-08-01T08:46:04;24.60;91.60
18207;DHT22;9229;52.354;20.886;2023-08-01T08:51:06;24.70;91.30
18207;DHT22;9229;52.354;20.886;2023-08-01T08:56:11;24.80;91.20
18207;DHT22;9229;52.354;20.886;2023-08-01T09:06:17;24.80;91.70
18207;DHT22;9229;52.354;20.886;2023-08-01T09:11:20;25.20;91.40
18207;DHT22;9229;52.354;20.886;2023-08-01T09:26:30;25.70;90.20
18207;DHT22;9229;52.354;20.886;2023-08-01T09:31:33;25.90;90.10
18207;DHT22;9229;52.354;20.886;2023-08-01T09:41:39;23.20;86.30
18207;DHT22;9229;52.354;20.886;2023-08-01T09:51:48;26.20;88.10
18207;DHT22;9229;52.354;20.886;2023-08-01T09:56:53;26.10;88.30
18207;DHT22;9229;52.354;20.886;2023-08-01T10:01:57;25.90;89.30
18207;DHT22;9229;52.354;20.886;2023-08-01T10:07:02;25.70;90.10
18207;DHT22;9229;52.354;20.886;2023-08-01T10:12:12;25.30;91.10
18207;DHT22;9229;52.354;20.886;2023-08-01T10:17:15;25.10;92.50
18207;DHT22;9229;52.354;20.886;2023-08-01T10:22:19;24.80;93.40
18207;DHT22;9229;52.354;20.886;2023-08-01T10:27:23;24.40;94.20
18207;DHT22;9229;52.354;20.886;2023-08-01T10:32:29;24.00;95.80
18207;DHT22;9229;52.354;20.886;2023-08-01T10:37:42;23.60;96.30
18207;DHT22;9229;52.354;20.886;2023-08-01T10:42:49;23.40;97.60
18207;DHT22;9229;52.354;20.886;2023-08-01T10:53:02;23.40;99.10
18207;DHT22;9229;52.354;20.886;2023-08-01T10:58:06;23.50;99.90
18207;DHT22;9229;52.354;20.886;2023-08-01T11:13:14;23.30;99.90
18207;DHT22;9229;52.354;20.886;2023-08-01T11:28:22;24.60;99.90
18207;DHT22;9229;52.354;20.886;2023-08-01T11:38:27;24.30;99.90
18207;DHT22;9229;52.354;20.886;2023-08-01T11:43:39;24.20;99.90
18207;DHT22;9229;52.354;20.886;2023-08-01T11:48:44;24.40;99.90
18207;DHT22;9229;52.354;20.886;2023-08-01T11:53:59;24.80;99.90
18207;DHT22;9229;52.354;20.886;2023-08-01T11:59:09;25.30;98.90
18207;DHT22;9229;52.354;20.886;2023-08-01T12:04:11;25.40;99.90
18207;DHT22;9229;52.354;20.886;2023-08-01T12:14:17;25.00;97.90
18207;DHT22;9229;52.354;20.886;2023-08-01T12:19:20;24.80;97.40
18207;DHT22;9229;52.354;20.886;2023-08-01T12:29:26;24.50;97.60
18207;DHT22;9229;52.354;20.886;2023-08-01T12:44:34;24.30;97.30
18207;DHT22;9229;52.354;20.886;2023-08-01T12:59:42;24.40;97.70
18207;DHT22;9229;52.354;20.886;2023-08-01T13:14:51;24.90;96.50
18207;DHT22;9229;52.354;20.886;2023-08-01T13:29:59;25.50;95.90
18207;DHT22;9229;52.354;20.886;2023-08-01T13:40:05;25.30;95.40
18207;DHT22;9229;52.354;20.886;2023-08-01T13:45:09;23.70;95.10
18207;DHT22;9229;52.354;20.886;2023-08-01T14:00:19;24.50;96.70
18207;DHT22;9229;52.354;20.886;2023-08-01T14:15:27;23.30;99.90
18207;DHT22;9229;52.354;20.886;2023-08-01T14:30:34;22.00;99.90
18207;DHT22;9229;52.354;20.886;2023-08-01T14:45:43;21.60;99.90
18207;DHT22;9229;52.354;20.886;2023-08-01T14:55:56;21.80;99.90
18207;DHT22;9229;52.354;20.886;2023-08-01T15:00:59;21.90;99.90
18207;DHT22;9229;52.354;20.886;2023-08-01T15:06:05;22.10;99.90
18207;DHT22;9229;52.354;20.886;2023-08-01T15:11:08;22.40;99.90
18207;DHT22;9229;52.354;20.886;2023-08-01T15:16:12;22.50;99.90
18207;DHT22;9229;52.354;20.886;2023-08-01T15:31:20;22.30;99.90
18207;DHT22;9229;52.354;20.886;2023-08-01T15:36:26;22.30;99.90
18207;DHT22;9229;52.354;20.886;2023-08-01T15:46:32;22.20;99.90
18207;DHT22;9229;52.354;20.886;2023-08-01T16:01:40;22.00;99.90
18207;DHT22;9229;52.354;20.886;2023-08-01T16:16:48;22.00;99.90
18207;DHT22;9229;52.354;20.886;2023-08-01T16:31:56;22.50;99.90
18207;DHT22;9229;52.354;20.886;2023-08-01T16:47:06;22.00;99.90
18207;DHT22;9229;52.354;20.886;2023-08-01T17:02:14;21.90;99.90
18207;DHT22;9229;52.354;20.886;2023-08-01T17:17:27;21.70;99.90
18207;DHT22;9229;52.354;20.886;2023-08-01T17:32:35;23.80;99.90
18207;DHT22;9229;52.354;20.886;2023-08-01T17:47:43;21.20;99.90
18207;DHT22;9229;52.354;20.886;2023-08-01T17:57:49;21.00;99.90
18207;DHT22;9229;52.354;20.886;2023-08-01T18:02:52;20.90;99.90
18207;DHT22;9229;52.354;20.886;2023-08-01T18:13:00;19.60;99.90
18207;DHT22;9229;52.354;20.886;2023-08-01T18:18:05;20.70;99.90
18207;DHT22;9229;52.354;20.886;2023-08-01T18:33:15;20.60;99.90
18207;DHT22;9229;52.354;20.886;2023-08-01T19:03:33;20.30;99.90
18207;DHT22;9229;52.354;20.886;2023-08-01T19:08:35;19.90;99.90
18207;DHT22;9229;52.354;20.886;2023-08-01T19:13:37;20.10;99.90
18207;DHT22;9229;52.354;20.886;2023-08-01T19:18:40;19.90;99.90
18207;DHT22;9229;52.354;20.886;2023-08-01T19:28:45;19.60;99.90
18207;DHT22;9229;52.354;20.886;2023-08-01T19:33:48;19.60;99.90
18207;DHT22;9229;52.354;20.886;2023-08-01T19:48:56;19.20;99.90
18207;DHT22;9229;52.354;20.886;2023-08-01T19:53:58;19.60;99.90
18207;DHT22;9229;52.354;20.886;2023-08-01T19:59:02;19.10;99.90
18207;DHT22;9229;52.354;20.886;2023-08-01T20:04:05;18.90;99.90
18207;DHT22;9229;52.354;20.886;2023-08-01T20:09:11;19.00;99.90
18207;DHT22;9229;52.354;20.886;2023-08-01T20:19:20;19.00;99.90
18207;DHT22;9229;52.354;20.886;2023-08-01T20:24:24;18.90;99.90
18207;DHT22;9229;52.354;20.886;2023-08-01T20:29:25;18.60;99.90
18207;DHT22;9229;52.354;20.886;2023-08-01T20:34:29;18.80;99.90
18207;DHT22;9229;52.354;20.886;2023-08-01T20:39:31;18.60;99.90
18207;DHT22;9229;52.354;20.886;2023-08-01T20:44:36;18.40;99.90
18207;DHT22;9229;52.354;20.886;2023-08-01T20:49:39;18.30;99.90
18207;DHT22;9229;52.354;20.886;2023-08-01T21:04:48;17.00;99.90
18207;DHT22;9229;52.354;20.886;2023-08-01T21:09:50;17.90;99.90
18207;DHT22;9229;52.354;20.886;2023-08-01T21:14:52;18.60;99.90
18207;DHT22;9229;52.354;20.886;2023-08-01T21:19:56;17.80;99.90
18207;DHT22;9229;52.354;20.886;2023-08-01T21:35:06;17.80;99.90
18207;DHT22;9229;52.354;20.886;2023-08-01T21:40:09;17.70;99.90
18207;DHT22;9229;52.354;20.886;2023-08-01T21:50:15;17.80;99.90
18207;DHT22;9229;52.354;20.886;2023-08-01T21:55:17;17.40;99.90
18207;DHT22;9229;52.354;20.886;2023-08-01T22:05:26;20.30;99.90
18207;DHT22;9229;52.354;20.886;2023-08-01T22:15:30;21.40;99.90
18207;DHT22;9229;52.354;20.886;2023-08-01T22:20:33;17.90;99.90
18207;DHT22;9229;52.354;20.886;2023-08-01T22:35:51;18.00;99.90
18207;DHT22;9229;52.354;20.886;2023-08-01T22:50:59;17.90;99.90
18207;DHT22;9229;52.354;20.886;2023-08-01T23:01:03;17.90;99.90
18207;DHT22;9229;52.354;20.886;2023-08-01T23:06:07;17.90;99.90
18207;DHT22;9229;52.354;20.886;2023-08-01T23:21:15;17.70;99.90
18207;DHT22;9229;52.354;20.886;2023-08-01T23:26:17;19.30;99.90
18207;DHT22;9229;52.354;20.886;2023-08-01T23:31:19;17.90;99.90
18207;DHT22;9229;52.354;20.886;2023-08-01T23:36:22;17.80;99.90
18207;DHT22;9229;52.354;20.886;2023-08-01T23:51:30;17.80;99.90
18207;DHT22;9229;52.354;20.886;2023-08-01T23:56:32;18.20;99.90
